Time;durP1;ratioP1;P1;durP2;ratioP2;P2;SDS_P1;SDS_P2;PMS_P1;PMS_P2;Temp;Humidity;BMP_temperature;BMP_pressure;BME280_temperature;BME280_humidity;BME280_pressure;Samples;Min_cycle;Max_cycle;Signal;HPM_P1;HPM_P2
2023/04/08 00:00:55;;;;;;;4.45;4.15;;;;;;;;;;5030181;28;20387;-84
2023/04/08 00:03:21;;;;;;;3.63;3.42;;;;;;;;;;5029763;28;20417;-84
2023/04/08 00:05:47;;;;;;;3.63;3.33;;;;;;;;;;5030515;28;20485;-83
2023/04/08 00:08:13;;;;;;;3.17;2.97;;;;;;;;;;5030660;28;20458;-84
2023/04/08 00:10:39;;;;;;;3.13;2.85;;;;;;;;;;5031978;28;20385;-84
2023/04/08 00:13:05;;;;;;;3.65;3.35;;;;;;;;;;5031746;28;20903;-84
2023/04/08 00:15:31;;;;;;;3.20;3.00;;;;;;;;;;5031711;28;20501;-84
2023/04/08 00:17:57;;;;;;;3.40;3.20;;;;;;;;;;5030464;28;20387;-84
2023/04/08 00:20:24;;;;;;;3.20;3.00;;;;;;;;;;5031403;28;20398;-84
2023/04/08 00:22:50;;;;;;;3.33;3.13;;;;;;;;;;5031701;28;20371;-84
2023/04/08 00:25:16;;;;;;;3.60;3.30;;;;;;;;;;5031599;28;20498;-84
2023/04/08 00:27:42;;;;;;;3.35;3.15;;;;;;;;;;5031682;28;20884;-84
2023/04/08 00:30:08;;;;;;;3.47;3.27;;;;;;;;;;5030836;28;20429;-84
2023/04/08 00:32:35;;;;;;;4.17;3.90;;;;;;;;;;5030769;28;20375;-84
2023/04/08 00:35:01;;;;;;;4.55;4.25;;;;;;;;;;5029801;28;20383;-84
2023/04/08 00:37:27;;;;;;;5.13;4.72;;;;;;;;;;5031337;28;20379;-84
2023/04/08 00:39:53;;;;;;;6.15;5.75;;;;;;;;;;5031482;28;20391;-84
2023/04/08 00:42:20;;;;;;;6.15;5.75;;;;;;;;;;5030252;28;20436;-83
2023/04/08 00:44:47;;;;;;;6.60;6.10;;;;;;;;;;5030178;28;20391;-83
2023/04/08 00:47:13;;;;;;;5.90;5.50;;;;;;;;;;5030757;28;20406;-83
2023/04/08 00:49:39;;;;;;;6.32;5.93;;;;;;;;;;5030301;28;20394;-82
2023/04/08 00:52:05;;;;;;;6.55;6.07;;;;;;;;;;5031009;28;20395;-82
2023/04/08 00:54:31;;;;;;;6.50;6.10;;;;;;;;;;5030055;28;20387;-82
2023/04/08 00:57:01;;;;;;;6.25;5.75;;;;;;;;;;5031756;28;20415;-82
2023/04/08 00:59:28;;;;;;;6.28;5.85;;;;;;;;;;5029928;28;20378;-82
2023/04/08 01:01:55;;;;;;;6.33;5.83;;;;;;;;;;5030619;28;20486;-83
2023/04/08 01:04:26;;;;;;;5.90;5.50;;;;;;;;;;5030874;28;20398;-83
2023/04/08 01:06:59;;;;;;;5.72;5.32;;;;;;;;;;5030742;28;20378;-82
2023/04/08 01:09:27;;;;;;;5.78;5.30;;;;;;;;;;5030978;28;20371;-82
2023/04/08 01:11:53;;;;;;;5.53;5.13;;;;;;;;;;5032032;28;20482;-82
2023/04/08 01:14:21;;;;;;;4.78;4.47;;;;;;;;;;5031429;28;20732;-82
2023/04/08 01:16:47;;;;;;;4.47;4.18;;;;;;;;;;5030839;28;20407;-82
2023/04/08 01:19:21;;;;;;;5.10;4.70;;;;;;;;;;5031843;28;20938;-83
2023/04/08 01:21:47;;;;;;;5.40;5.00;;;;;;;;;;5030675;28;20375;-83
2023/04/08 01:24:26;;;;;;;4.53;4.22;;;;;;;;;;5029891;28;20394;-82
2023/04/08 01:26:52;;;;;;;4.53;4.22;;;;;;;;;;5031035;28;20445;-82
2023/04/08 01:29:18;;;;;;;4.60;4.30;;;;;;;;;;5030955;28;20477;-82
2023/04/08 01:31:46;;;;;;;4.47;4.18;;;;;;;;;;5030734;28;20386;-82
2023/04/08 01:34:13;;;;;;;4.90;4.50;;;;;;;;;;5030747;28;20391;-82
2023/04/08 01:36:40;;;;;;;4.80;4.50;;;;;;;;;;5030840;28;20533;-82
2023/04/08 01:39:06;;;;;;;4.20;3.92;;;;;;;;;;5030699;28;20418;-82
2023/04/08 01:41:34;;;;;;;4.45;4.15;;;;;;;;;;5033559;28;20379;-82
2023/04/08 01:44:00;;;;;;;4.32;4.03;;;;;;;;;;5033532;28;20456;-82
2023/04/08 01:46:27;;;;;;;3.97;3.75;;;;;;;;;;5024354;28;20379;-82
2023/04/08 01:48:54;;;;;;;4.32;3.92;;;;;;;;;;5034586;28;20383;-83
2023/04/08 01:51:20;;;;;;;4.30;4.00;;;;;;;;;;5034844;28;20445;-82
2023/04/08 01:53:46;;;;;;;4.15;3.88;;;;;;;;;;5034388;28;20403;-82
2023/04/08 01:56:13;;;;;;;5.13;4.80;;;;;;;;;;5032789;28;20407;-82
2023/04/08 01:58:42;;;;;;;5.22;4.82;;;;;;;;;;5034105;28;20386;-82
2023/04/08 02:01:12;;;;;;;4.90;4.60;;;;;;;;;;5033511;28;20461;-82
2023/04/08 02:03:38;;;;;;;5.72;5.32;;;;;;;;;;5033791;28;20426;-82
2023/04/08 02:06:05;;;;;;;6.15;5.75;;;;;;;;;;5032711;28;20386;-83
2023/04/08 02:08:35;;;;;;;6.32;5.82;;;;;;;;;;5029583;28;20396;-83
2023/04/08 02:11:02;;;;;;;6.15;5.75;;;;;;;;;;5034212;28;20375;-82
2023/04/08 02:13:28;;;;;;;5.95;5.55;;;;;;;;;;5020322;28;20387;-82
2023/04/08 02:15:59;;;;;;;5.60;5.20;;;;;;;;;;5034007;28;20492;-83
2023/04/08 02:18:29;;;;;;;5.00;4.70;;;;;;;;;;5033997;28;20865;-83
2023/04/08 02:21:06;;;;;;;5.30;4.90;;;;;;;;;;5034364;28;20375;-82
2023/04/08 02:23:35;;;;;;;5.25;4.95;;;;;;;;;;5025437;28;20474;-82
2023/04/08 02:26:02;;;;;;;9.00;8.32;;;;;;;;;;5020044;28;20430;-82
2023/04/08 02:28:31;;;;;;;6.95;6.45;;;;;;;;;;5025941;28;20795;-82
2023/04/08 02:30:59;;;;;;;6.22;5.80;;;;;;;;;;5038390;28;20393;-82
2023/04/08 02:33:26;;;;;;;5.35;4.95;;;;;;;;;;5034668;28;20409;-82
2023/04/08 02:35:54;;;;;;;8.57;7.88;;;;;;;;;;5033583;28;20411;-83
2023/04/08 02:38:20;;;;;;;7.47;6.88;;;;;;;;;;5032904;28;20736;-83
2023/04/08 02:40:48;;;;;;;17.55;16.15;;;;;;;;;;5031411;28;20386;-82
2023/04/08 02:43:15;;;;;;;7.35;6.85;;;;;;;;;;5033389;28;20379;-82
2023/04/08 02:45:45;;;;;;;6.85;6.35;;;;;;;;;;5033461;28;20379;-83
2023/04/08 02:48:11;;;;;;;6.50;6.10;;;;;;;;;;5033407;28;20419;-82
2023/04/08 02:50:38;;;;;;;6.03;5.63;;;;;;;;;;5033557;28;20565;-82
2023/04/08 02:53:04;;;;;;;6.00;5.60;;;;;;;;;;5037111;28;20517;-82
2023/04/08 02:55:30;;;;;;;5.40;5.10;;;;;;;;;;5033975;28;20951;-82
2023/04/08 02:57:56;;;;;;;5.77;5.37;;;;;;;;;;5031986;28;20525;-83
2023/04/08 03:00:22;;;;;;;5.65;5.25;;;;;;;;;;5032836;28;20418;-83
2023/04/08 03:02:48;;;;;;;5.63;5.22;;;;;;;;;;5032688;28;20398;-82
2023/04/08 03:05:15;;;;;;;5.87;5.50;;;;;;;;;;5032754;28;20462;-82
2023/04/08 03:07:41;;;;;;;6.20;5.80;;;;;;;;;;5032902;28;20458;-83
2023/04/08 03:10:08;;;;;;;6.30;5.90;;;;;;;;;;5033132;28;20767;-82
2023/04/08 03:12:34;;;;;;;6.55;6.15;;;;;;;;;;5038814;28;20869;-83
2023/04/08 03:15:00;;;;;;;6.80;6.40;;;;;;;;;;5033006;28;20461;-82
2023/04/08 03:17:26;;;;;;;6.50;6.10;;;;;;;;;;5034921;28;20407;-83
2023/04/08 03:19:52;;;;;;;6.13;5.72;;;;;;;;;;5032886;28;21040;-82
2023/04/08 03:22:18;;;;;;;7.47;6.88;;;;;;;;;;5032718;28;20394;-82
2023/04/08 03:24:47;;;;;;;6.57;6.18;;;;;;;;;;5032932;28;20880;-82
2023/04/08 03:27:13;;;;;;;7.28;6.88;;;;;;;;;;5032733;28;20399;-83
2023/04/08 03:29:39;;;;;;;7.60;7.10;;;;;;;;;;5032787;28;20383;-83
2023/04/08 03:32:05;;;;;;;7.07;6.57;;;;;;;;;;5032446;28;20888;-83
2023/04/08 03:34:31;;;;;;;7.28;6.78;;;;;;;;;;5032806;28;20407;-83
2023/04/08 03:36:57;;;;;;;7.00;6.55;;;;;;;;;;5030242;28;20410;-83
2023/04/08 03:39:23;;;;;;;6.50;6.10;;;;;;;;;;5031882;28;20383;-83
2023/04/08 03:41:49;;;;;;;7.20;6.60;;;;;;;;;;5031122;28;20384;-82
2023/04/08 03:44:15;;;;;;;6.88;6.47;;;;;;;;;;5032419;28;20383;-82
2023/04/08 03:46:41;;;;;;;6.63;6.22;;;;;;;;;;5032451;28;20787;-83
2023/04/08 03:49:07;;;;;;;6.43;5.93;;;;;;;;;;5029950;28;20416;-83
2023/04/08 03:51:33;;;;;;;6.30;5.90;;;;;;;;;;5032104;28;20375;-82
2023/04/08 03:53:59;;;;;;;6.82;6.35;;;;;;;;;;5032267;28;20887;-83
2023/04/08 03:56:25;;;;;;;6.60;6.20;;;;;;;;;;5029487;28;20410;-82
2023/04/08 03:58:51;;;;;;;6.55;6.15;;;;;;;;;;5034016;28;20390;-84
2023/04/08 04:01:17;;;;;;;7.18;6.68;;;;;;;;;;5031646;28;20379;-84
2023/04/08 04:03:43;;;;;;;7.18;6.68;;;;;;;;;;5028980;28;20820;-85
2023/04/08 04:06:09;;;;;;;8.10;7.60;;;;;;;;;;5031382;28;20804;-83
2023/04/08 04:08:35;;;;;;;9.80;9.10;;;;;;;;;;5031509;28;20386;-83
2023/04/08 04:11:01;;;;;;;9.70;9.10;;;;;;;;;;5031920;28;20517;-83
2023/04/08 04:13:27;;;;;;;10.52;9.82;;;;;;;;;;5025326;28;20429;-83
2023/04/08 04:15:53;;;;;;;9.98;9.27;;;;;;;;;;5018012;28;20445;-85
2023/04/08 04:18:19;;;;;;;10.40;9.70;;;;;;;;;;5030121;28;20390;-83
2023/04/08 04:20:45;;;;;;;9.70;9.10;;;;;;;;;;5031254;28;20375;-83
2023/04/08 04:23:11;;;;;;;9.00;8.40;;;;;;;;;;5034327;28;20432;-83
2023/04/08 04:25:40;;;;;;;8.32;7.82;;;;;;;;;;5031599;28;20415;-83
2023/04/08 04:28:07;;;;;;;8.45;7.85;;;;;;;;;;5029613;28;20885;-83
2023/04/08 04:30:36;;;;;;;8.00;7.50;;;;;;;;;;5029313;28;20805;-83
2023/04/08 04:33:02;;;;;;;7.90;7.40;;;;;;;;;;5017987;28;20373;-83
2023/04/08 04:35:27;;;;;;;8.20;7.70;;;;;;;;;;5034311;28;20494;-83
2023/04/08 04:37:56;;;;;;;7.68;7.18;;;;;;;;;;5020937;28;20387;-83
2023/04/08 04:40:22;;;;;;;7.80;7.30;;;;;;;;;;5025105;28;20425;-83
2023/04/08 04:42:48;;;;;;;9.13;8.43;;;;;;;;;;5030970;28;20383;-83
2023/04/08 04:45:14;;;;;;;7.93;7.43;;;;;;;;;;5030846;28;20390;-83
2023/04/08 04:47:40;;;;;;;7.50;7.00;;;;;;;;;;5031298;28;20411;-83
2023/04/08 04:50:07;;;;;;;8.20;7.67;;;;;;;;;;5028418;28;20422;-83
2023/04/08 04:52:33;;;;;;;9.55;8.77;;;;;;;;;;5029786;28;20398;-83
2023/04/08 04:54:59;;;;;;;8.35;7.80;;;;;;;;;;5030425;28;20379;-82
2023/04/08 04:57:25;;;;;;;7.85;7.25;;;;;;;;;;5030226;28;20399;-83
2023/04/08 04:59:51;;;;;;;7.68;7.18;;;;;;;;;;5030319;28;20374;-83
2023/04/08 05:02:17;;;;;;;8.13;7.53;;;;;;;;;;5030149;28;20411;-83
2023/04/08 05:04:43;;;;;;;7.90;7.40;;;;;;;;;;5043685;28;20874;-83
2023/04/08 05:07:09;;;;;;;7.60;7.10;;;;;;;;;;5035637;28;20415;-82
2023/04/08 05:09:35;;;;;;;7.65;7.15;;;;;;;;;;5029877;28;20394;-82
2023/04/08 05:12:01;;;;;;;8.63;7.97;;;;;;;;;;5030167;28;20387;-83
2023/04/08 05:14:30;;;;;;;8.35;7.85;;;;;;;;;;5030031;28;20433;-82
2023/04/08 05:16:56;;;;;;;8.93;8.23;;;;;;;;;;5033723;28;20493;-83
2023/04/08 05:19:22;;;;;;;8.63;8.02;;;;;;;;;;5043596;28;20380;-83
2023/04/08 05:21:48;;;;;;;8.38;7.88;;;;;;;;;;5034430;28;20421;-83
2023/04/08 05:24:22;;;;;;;8.38;7.88;;;;;;;;;;5034885;28;20795;-84
2023/04/08 05:26:52;;;;;;;8.97;8.27;;;;;;;;;;5034601;28;20391;-85
2023/04/08 05:29:18;;;;;;;8.70;8.20;;;;;;;;;;5033876;28;20390;-83
2023/04/08 05:31:45;;;;;;;8.40;7.80;;;;;;;;;;5034838;28;20386;-83
2023/04/08 05:34:11;;;;;;;9.00;8.40;;;;;;;;;;5034723;28;20414;-84
2023/04/08 05:36:37;;;;;;;9.27;8.68;;;;;;;;;;5033659;28;20437;-84
2023/04/08 05:39:03;;;;;;;9.98;9.18;;;;;;;;;;5031869;28;20488;-84
2023/04/08 05:41:32;;;;;;;10.40;9.70;;;;;;;;;;5033708;28;20370;-84
2023/04/08 05:43:58;;;;;;;11.27;10.48;;;;;;;;;;5034571;28;20820;-87
2023/04/08 05:46:24;;;;;;;11.18;10.38;;;;;;;;;;5063789;23;21078;-80
2023/04/08 05:48:50;;;;;;;10.77;10.07;;;;;;;;;;5055006;28;20392;-81
2023/04/08 05:51:16;;;;;;;12.23;11.23;;;;;;;;;;5051960;28;20413;-80
2023/04/08 05:53:42;;;;;;;12.63;11.73;;;;;;;;;;5046210;28;20381;-80
2023/04/08 05:56:09;;;;;;;11.85;11.05;;;;;;;;;;5054561;28;20413;-80
2023/04/08 05:58:35;;;;;;;11.00;10.30;;;;;;;;;;5053307;28;20389;-80
2023/04/08 06:01:01;;;;;;;10.50;9.80;;;;;;;;;;5054569;28;20715;-80
2023/04/08 06:03:27;;;;;;;10.32;9.63;;;;;;;;;;5054597;28;20401;-80
2023/04/08 06:05:53;;;;;;;10.95;10.23;;;;;;;;;;5054004;28;20385;-81
2023/04/08 06:08:19;;;;;;;9.57;8.95;;;;;;;;;;5054202;28;20396;-80
2023/04/08 06:10:52;;;;;;;10.52;9.82;;;;;;;;;;5054534;28;20413;-80
2023/04/08 06:13:19;;;;;;;11.90;11.10;;;;;;;;;;5054140;28;20385;-80
2023/04/08 06:15:47;;;;;;;11.23;10.43;;;;;;;;;;5053788;28;20409;-80
2023/04/08 06:18:13;;;;;;;11.05;10.23;;;;;;;;;;5054322;28;20382;-80
2023/04/08 06:20:39;;;;;;;11.40;10.50;;;;;;;;;;5054178;28;20467;-80
2023/04/08 06:23:05;;;;;;;10.88;10.10;;;;;;;;;;5054059;28;20381;-80
2023/04/08 06:25:31;;;;;;;11.68;10.93;;;;;;;;;;5053467;28;20914;-80
2023/04/08 06:27:57;;;;;;;11.30;10.50;;;;;;;;;;5054055;28;20405;-80
2023/04/08 06:30:23;;;;;;;10.75;9.95;;;;;;;;;;5053850;28;20386;-81
2023/04/08 06:32:49;;;;;;;10.30;9.60;;;;;;;;;;5053898;28;20377;-80
2023/04/08 06:35:15;;;;;;;9.93;9.27;;;;;;;;;;5053242;28;20922;-81
2023/04/08 06:37:41;;;;;;;11.25;10.45;;;;;;;;;;5053428;28;20388;-80
2023/04/08 06:40:08;;;;;;;12.15;11.25;;;;;;;;;;5054027;28;20382;-80
2023/04/08 06:42:34;;;;;;;12.13;11.32;;;;;;;;;;5053959;28;20434;-80
2023/04/08 06:45:00;;;;;;;12.00;11.13;;;;;;;;;;5053499;28;20406;-80
2023/04/08 06:47:26;;;;;;;11.50;10.70;;;;;;;;;;5051473;28;20400;-81
2023/04/08 06:49:53;;;;;;;11.70;10.90;;;;;;;;;;5053638;28;20396;-79
2023/04/08 06:52:19;;;;;;;12.38;11.48;;;;;;;;;;5053649;28;20396;-80
2023/04/08 06:54:45;;;;;;;11.13;10.32;;;;;;;;;;5053388;28;20447;-80
2023/04/08 06:57:12;;;;;;;11.75;10.95;;;;;;;;;;5053457;28;20409;-80
2023/04/08 06:59:38;;;;;;;12.55;11.68;;;;;;;;;;5049137;28;20391;-80
2023/04/08 07:02:04;;;;;;;13.25;12.18;;;;;;;;;;5043996;28;20382;-80
2023/04/08 07:04:30;;;;;;;14.20;13.18;;;;;;;;;;5050782;28;20449;-80
2023/04/08 07:06:56;;;;;;;12.50;11.65;;;;;;;;;;5049630;28;20381;-78
2023/04/08 07:09:22;;;;;;;14.23;13.18;;;;;;;;;;5052672;28;20403;-80
2023/04/08 07:11:48;;;;;;;13.13;12.17;;;;;;;;;;5053258;28;20422;-78
2023/04/08 07:14:14;;;;;;;12.63;11.73;;;;;;;;;;5053217;28;20852;-78
2023/04/08 07:16:40;;;;;;;12.45;11.55;;;;;;;;;;5052327;28;20415;-79
2023/04/08 07:19:06;;;;;;;12.37;11.53;;;;;;;;;;5050194;28;20377;-79
2023/04/08 07:21:32;;;;;;;11.90;11.10;;;;;;;;;;5052964;28;20848;-79
2023/04/08 07:23:59;;;;;;;11.60;10.80;;;;;;;;;;5052470;28;20382;-79
2023/04/08 07:26:25;;;;;;;12.35;11.45;;;;;;;;;;5050931;28;20467;-78
2023/04/08 07:28:51;;;;;;;12.63;11.73;;;;;;;;;;5049719;28;20388;-78
2023/04/08 07:31:18;;;;;;;11.85;11.05;;;;;;;;;;5052175;28;20480;-78
2023/04/08 07:33:45;;;;;;;12.43;11.52;;;;;;;;;;5052434;28;20382;-78
2023/04/08 07:36:11;;;;;;;12.75;11.77;;;;;;;;;;5052110;28;20416;-78
2023/04/08 07:38:38;;;;;;;11.43;10.68;;;;;;;;;;5051965;28;20396;-78
2023/04/08 07:41:04;;;;;;;12.43;11.52;;;;;;;;;;5051857;28;20385;-78
2023/04/08 07:43:33;;;;;;;12.02;11.13;;;;;;;;;;5052524;28;20407;-78
2023/04/08 07:46:03;;;;;;;12.10;11.20;;;;;;;;;;5051991;28;20974;-78
2023/04/08 07:48:29;;;;;;;10.93;10.13;;;;;;;;;;5052264;28;20447;-78
2023/04/08 07:50:55;;;;;;;11.20;10.40;;;;;;;;;;5052383;28;20408;-78
2023/04/08 07:53:23;;;;;;;10.77;10.07;;;;;;;;;;5052210;28;20381;-78
2023/04/08 07:55:49;;;;;;;12.45;11.55;;;;;;;;;;5052095;28;20405;-78
2023/04/08 07:58:15;;;;;;;12.57;11.68;;;;;;;;;;5051325;28;20386;-78
2023/04/08 08:00:41;;;;;;;11.98;11.07;;;;;;;;;;5052435;28;20446;-78
2023/04/08 08:03:07;;;;;;;10.33;9.63;;;;;;;;;;5052110;28;20398;-78
2023/04/08 08:05:35;;;;;;;10.05;9.32;;;;;;;;;;5051577;28;20476;-78
2023/04/08 08:08:02;;;;;;;11.05;10.25;;;;;;;;;;5052122;28;20409;-78
2023/04/08 08:10:28;;;;;;;12.38;11.38;;;;;;;;;;5045720;28;20451;-78
2023/04/08 08:12:54;;;;;;;25.08;12.38;;;;;;;;;;5052274;28;20716;-78
2023/04/08 08:15:20;;;;;;;12.83;11.13;;;;;;;;;;5051896;28;20377;-78
2023/04/08 08:17:46;;;;;;;10.00;9.30;;;;;;;;;;5052053;28;20381;-79
2023/04/08 08:20:12;;;;;;;14.05;9.00;;;;;;;;;;5051908;28;20412;-79
2023/04/08 08:22:38;;;;;;;10.30;9.32;;;;;;;;;;5051975;28;20422;-79
2023/04/08 08:25:04;;;;;;;8.23;7.63;;;;;;;;;;5051942;28;20374;-79
2023/04/08 08:27:33;;;;;;;7.55;7.05;;;;;;;;;;5051815;28;20435;-78
2023/04/08 08:29:59;;;;;;;5.90;5.50;;;;;;;;;;5051784;28;20384;-79
2023/04/08 08:32:25;;;;;;;6.63;6.22;;;;;;;;;;5051629;28;20421;-79
2023/04/08 08:34:51;;;;;;;6.10;5.60;;;;;;;;;;5051635;28;20381;-79
2023/04/08 08:37:17;;;;;;;5.90;5.50;;;;;;;;;;5051693;28;20412;-79
2023/04/08 08:39:43;;;;;;;6.30;5.80;;;;;;;;;;5050601;28;20386;-79
2023/04/08 08:42:22;;;;;;;5.90;5.50;;;;;;;;;;5051495;28;20456;-77
2023/04/08 08:44:48;;;;;;;6.72;6.22;;;;;;;;;;5051656;28;20401;-78
2023/04/08 08:47:15;;;;;;;6.93;6.43;;;;;;;;;;5051485;28;20415;-78
2023/04/08 08:49:41;;;;;;;7.47;6.97;;;;;;;;;;5051059;28;20386;-79
2023/04/08 08:52:07;;;;;;;6.53;6.13;;;;;;;;;;5051471;28;20385;-79
2023/04/08 08:54:33;;;;;;;7.40;6.90;;;;;;;;;;5051486;28;20896;-79
2023/04/08 08:56:59;;;;;;;7.30;6.80;;;;;;;;;;5054180;28;20409;-80
2023/04/08 08:59:25;;;;;;;6.75;6.25;;;;;;;;;;5056179;28;20378;-79
2023/04/08 09:01:51;;;;;;;6.97;6.47;;;;;;;;;;5053466;28;20427;-79
2023/04/08 09:04:18;;;;;;;7.18;6.68;;;;;;;;;;5052361;28;20774;-79
2023/04/08 09:06:45;;;;;;;6.78;6.28;;;;;;;;;;5051998;28;20409;-79
2023/04/08 09:09:12;;;;;;;6.72;6.22;;;;;;;;;;5044250;28;20418;-79
2023/04/08 09:11:39;;;;;;;7.03;6.53;;;;;;;;;;5050558;28;20396;-79
2023/04/08 09:14:06;;;;;;;7.05;6.55;;;;;;;;;;5051854;28;20388;-79
2023/04/08 09:16:32;;;;;;;7.75;7.15;;;;;;;;;;5051142;28;20401;-80
2023/04/08 09:19:09;;;;;;;7.82;7.22;;;;;;;;;;5051559;28;20381;-79
2023/04/08 09:21:35;;;;;;;6.78;6.32;;;;;;;;;;5051434;28;20511;-79
2023/04/08 09:24:01;;;;;;;7.70;7.10;;;;;;;;;;5051227;28;20377;-78
2023/04/08 09:26:27;;;;;;;7.13;6.63;;;;;;;;;;5051395;28;20374;-80
2023/04/08 09:29:03;;;;;;;8.55;7.78;;;;;;;;;;5051243;28;20413;-79
2023/04/08 09:31:30;;;;;;;53.55;21.70;;;;;;;;;;5051408;28;20388;-80
2023/04/08 09:33:57;;;;;;;7.60;7.10;;;;;;;;;;5050984;28;20377;-79
2023/04/08 09:36:25;;;;;;;7.45;6.93;;;;;;;;;;5050665;28;20408;-80
2023/04/08 09:38:51;;;;;;;7.18;6.68;;;;;;;;;;5044216;28;20793;-79
2023/04/08 09:41:19;;;;;;;7.53;7.03;;;;;;;;;;5048640;28;20408;-79
2023/04/08 09:43:51;;;;;;;7.80;7.30;;;;;;;;;;5038818;28;20380;-80
2023/04/08 09:46:19;;;;;;;8.43;7.72;;;;;;;;;;5036222;28;20441;-80
2023/04/08 09:48:50;;;;;;;7.82;7.22;;;;;;;;;;5049705;28;20468;-80
2023/04/08 09:51:18;;;;;;;8.52;7.93;;;;;;;;;;5044465;28;20472;-80
2023/04/08 09:53:48;;;;;;;7.80;7.30;;;;;;;;;;5043036;28;20436;-79
2023/04/08 09:56:15;;;;;;;7.03;6.53;;;;;;;;;;5050186;28;20409;-80
2023/04/08 09:58:46;;;;;;;18.60;11.82;;;;;;;;;;5050926;28;20388;-79
2023/04/08 10:01:13;;;;;;;8.55;7.90;;;;;;;;;;5051454;28;20377;-79
2023/04/08 10:03:42;;;;;;;8.40;7.80;;;;;;;;;;5054348;28;20819;-79
2023/04/08 10:06:09;;;;;;;8.60;8.00;;;;;;;;;;5054320;28;20468;-79
2023/04/08 10:08:35;;;;;;;8.63;8.02;;;;;;;;;;5052038;28;20427;-78
2023/04/08 10:11:01;;;;;;;8.52;7.93;;;;;;;;;;5053715;28;20391;-79
2023/04/08 10:13:27;;;;;;;8.50;7.90;;;;;;;;;;5054279;28;20437;-80
2023/04/08 10:16:17;;;;;;;7.28;6.78;;;;;;;;;;5054001;28;20974;-80
2023/04/08 10:18:44;;;;;;;7.50;7.00;;;;;;;;;;5053884;28;20381;-79
2023/04/08 10:21:29;;;;;;;7.55;7.00;;;;;;;;;;5054228;28;20389;-79
2023/04/08 10:23:58;;;;;;;7.40;6.90;;;;;;;;;;5054003;28;20926;-80
2023/04/08 10:26:32;;;;;;;7.90;7.40;;;;;;;;;;5054050;28;20488;-80
2023/04/08 10:29:18;;;;;;;8.10;7.43;;;;;;;;;;5053278;28;20401;-79
2023/04/08 10:31:45;;;;;;;7.65;7.15;;;;;;;;;;5032039;28;20395;-80
2023/04/08 10:34:17;;;;;;;6.90;6.40;;;;;;;;;;5051987;28;20392;-80
2023/04/08 10:36:43;;;;;;;8.13;7.53;;;;;;;;;;5053758;28;20412;-79
2023/04/08 10:39:09;;;;;;;7.38;6.88;;;;;;;;;;5053782;28;20546;-78
2023/04/08 10:41:41;;;;;;;7.50;6.93;;;;;;;;;;5053775;28;20385;-78
2023/04/08 10:44:20;;;;;;;7.50;7.00;;;;;;;;;;5052208;28;20372;-79
2023/04/08 10:46:46;;;;;;;7.70;7.10;;;;;;;;;;5051310;28;20405;-79
2023/04/08 10:49:13;;;;;;;7.45;6.95;;;;;;;;;;5048551;28;20424;-79
2023/04/08 10:51:40;;;;;;;8.13;7.53;;;;;;;;;;5051843;28;20381;-78
2023/04/08 10:54:13;;;;;;;7.87;7.37;;;;;;;;;;5033828;28;20419;-79
2023/04/08 10:56:47;;;;;;;8.20;7.60;;;;;;;;;;5045567;28;20912;-79
2023/04/08 10:59:18;;;;;;;6.63;6.20;;;;;;;;;;5038024;28;20387;-78
2023/04/08 11:01:45;;;;;;;5.88;5.38;;;;;;;;;;5034526;28;20388;-78
2023/04/08 11:04:12;;;;;;;5.23;4.90;;;;;;;;;;5046909;28;20479;-79
2023/04/08 11:06:38;;;;;;;5.25;4.88;;;;;;;;;;5045489;28;20393;-79
2023/04/08 11:09:04;;;;;;;4.90;4.60;;;;;;;;;;5044157;28;20379;-79
2023/04/08 11:11:30;;;;;;;5.60;5.20;;;;;;;;;;5045778;28;20382;-79
2023/04/08 11:13:56;;;;;;;6.00;5.50;;;;;;;;;;5052139;28;20382;-79
2023/04/08 11:16:22;;;;;;;5.10;4.70;;;;;;;;;;5052885;28;20407;-79
2023/04/08 11:18:50;;;;;;;4.75;4.45;;;;;;;;;;5045983;28;20433;-79
2023/04/08 11:21:16;;;;;;;5.00;4.70;;;;;;;;;;5052973;28;20393;-79
2023/04/08 11:23:42;;;;;;;4.50;4.20;;;;;;;;;;5049278;28;20403;-79
2023/04/08 11:26:08;;;;;;;4.85;4.45;;;;;;;;;;5052941;28;20425;-79
2023/04/08 11:28:35;;;;;;;4.95;4.65;;;;;;;;;;5048256;28;20386;-79
2023/04/08 11:31:04;;;;;;;5.35;5.03;;;;;;;;;;5053609;28;20389;-79
2023/04/08 11:33:31;;;;;;;5.57;5.18;;;;;;;;;;5052939;28;20923;-79
2023/04/08 11:35:57;;;;;;;5.22;4.82;;;;;;;;;;5052340;28;20413;-79
2023/04/08 11:38:24;;;;;;;5.80;5.40;;;;;;;;;;5052773;28;20378;-79
2023/04/08 11:40:54;;;;;;;5.80;5.40;;;;;;;;;;5052844;28;20373;-79
2023/04/08 11:43:21;;;;;;;5.50;5.10;;;;;;;;;;5052650;28;20384;-79
2023/04/08 11:45:47;;;;;;;5.55;5.15;;;;;;;;;;5052273;28;20497;-79
2023/04/08 11:48:13;;;;;;;5.20;4.90;;;;;;;;;;5052790;28;20396;-79
2023/04/08 11:50:40;;;;;;;4.67;4.37;;;;;;;;;;5052568;28;20468;-79
2023/04/08 11:53:19;;;;;;;4.70;4.40;;;;;;;;;;5052378;28;20406;-79
2023/04/08 11:55:46;;;;;;;4.35;4.00;;;;;;;;;;5045695;28;20482;-81
2023/04/08 11:58:12;;;;;;;3.95;3.65;;;;;;;;;;5045719;28;20394;-81
2023/04/08 12:00:38;;;;;;;4.40;4.10;;;;;;;;;;5048382;28;21171;-81
2023/04/08 12:03:04;;;;;;;4.38;4.07;;;;;;;;;;5048360;28;20416;-80
2023/04/08 12:05:30;;;;;;;3.95;3.72;;;;;;;;;;5046012;28;20373;-80
2023/04/08 12:07:56;;;;;;;3.60;3.40;;;;;;;;;;5045896;28;20623;-80
2023/04/08 12:10:24;;;;;;;3.70;3.40;;;;;;;;;;5040507;28;20460;-80
2023/04/08 12:12:50;;;;;;;3.90;3.60;;;;;;;;;;5045890;28;20401;-79
2023/04/08 12:15:16;;;;;;;3.80;3.55;;;;;;;;;;5043725;28;20385;-79
2023/04/08 12:17:45;;;;;;;3.67;3.45;;;;;;;;;;5043800;28;20413;-79
2023/04/08 12:20:12;;;;;;;3.92;3.63;;;;;;;;;;5051159;28;20389;-79
2023/04/08 12:22:38;;;;;;;3.67;3.47;;;;;;;;;;5056452;28;20381;-79
2023/04/08 12:25:05;;;;;;;4.15;3.85;;;;;;;;;;5059635;28;20389;-79
2023/04/08 12:27:34;;;;;;;3.90;3.60;;;;;;;;;;5055006;28;20431;-80
2023/04/08 12:30:01;;;;;;;3.65;3.45;;;;;;;;;;5055269;28;20377;-80
2023/04/08 12:32:27;;;;;;;4.05;3.75;;;;;;;;;;5053654;28;20858;-80
2023/04/08 12:34:53;;;;;;;4.03;3.80;;;;;;;;;;5052574;28;20450;-80
2023/04/08 12:37:22;;;;;;;3.53;3.22;;;;;;;;;;5051594;28;20499;-80
2023/04/08 12:39:48;;;;;;;4.20;3.90;;;;;;;;;;5049533;28;20401;-80
2023/04/08 12:42:14;;;;;;;3.85;3.55;;;;;;;;;;5045255;28;20882;-79
2023/04/08 12:44:40;;;;;;;5.40;5.00;;;;;;;;;;5051397;28;20791;-81
2023/04/08 12:47:06;;;;;;;4.22;3.92;;;;;;;;;;5051733;28;20382;-80
2023/04/08 12:49:32;;;;;;;2.90;2.70;;;;;;;;;;5051543;28;20385;-80
2023/04/08 12:51:58;;;;;;;3.58;3.28;;;;;;;;;;5051702;28;20723;-81
2023/04/08 12:54:24;;;;;;;3.30;3.10;;;;;;;;;;5051905;28;20374;-81
2023/04/08 12:56:50;;;;;;;3.30;3.10;;;;;;;;;;5051508;28;20814;-81
2023/04/08 12:59:16;;;;;;;2.87;2.70;;;;;;;;;;5043835;28;20473;-80
2023/04/08 13:01:42;;;;;;;2.42;2.22;;;;;;;;;;5051595;28;20528;-79
2023/04/08 13:04:08;;;;;;;1.85;1.75;;;;;;;;;;5051659;28;20382;-81
2023/04/08 13:06:34;;;;;;;2.00;1.90;;;;;;;;;;5050986;28;20393;-81
2023/04/08 13:09:00;;;;;;;2.20;2.10;;;;;;;;;;5043523;28;20410;-80
2023/04/08 13:11:26;;;;;;;2.30;2.20;;;;;;;;;;5038148;28;20389;-79
2023/04/08 13:13:52;;;;;;;2.30;2.10;;;;;;;;;;5051381;28;20377;-79
2023/04/08 13:16:19;;;;;;;2.00;1.90;;;;;;;;;;5051397;28;20438;-79
2023/04/08 13:18:45;;;;;;;2.60;2.40;;;;;;;;;;5051378;28;20460;-79
2023/04/08 13:21:11;;;;;;;2.55;2.35;;;;;;;;;;5046670;28;20749;-80
2023/04/08 13:23:37;;;;;;;2.42;2.22;;;;;;;;;;5050759;28;20384;-81
2023/04/08 13:26:03;;;;;;;2.40;2.20;;;;;;;;;;5051168;28;20385;-81
2023/04/08 13:28:29;;;;;;;2.10;2.00;;;;;;;;;;5051180;28;20385;-81
2023/04/08 13:30:55;;;;;;;2.10;2.00;;;;;;;;;;5050910;28;20394;-81
2023/04/08 13:33:21;;;;;;;2.30;2.20;;;;;;;;;;5043767;28;20385;-80
2023/04/08 13:35:47;;;;;;;2.17;2.08;;;;;;;;;;5043327;28;20508;-80
2023/04/08 13:38:13;;;;;;;2.50;2.30;;;;;;;;;;5055087;28;20389;-80
2023/04/08 13:40:39;;;;;;;2.80;2.60;;;;;;;;;;5055110;28;20893;-80
2023/04/08 13:43:05;;;;;;;4.13;3.83;;;;;;;;;;5055128;28;20507;-80
2023/04/08 13:45:31;;;;;;;2.22;2.00;;;;;;;;;;5054423;28;20405;-80
2023/04/08 13:47:58;;;;;;;2.50;2.30;;;;;;;;;;5053740;28;21054;-80
2023/04/08 13:50:25;;;;;;;2.97;2.67;;;;;;;;;;5054982;28;20413;-80
2023/04/08 13:52:51;;;;;;;4.45;4.05;;;;;;;;;;5054849;28;20384;-80
2023/04/08 13:55:17;;;;;;;4.43;4.07;;;;;;;;;;5054502;28;20469;-80
2023/04/08 13:57:43;;;;;;;3.55;3.28;;;;;;;;;;5054621;28;20900;-80
2023/04/08 14:00:10;;;;;;;3.70;3.40;;;;;;;;;;5054863;28;20919;-80
2023/04/08 14:02:36;;;;;;;3.50;3.25;;;;;;;;;;5054266;28;20847;-80
2023/04/08 14:05:03;;;;;;;3.90;3.60;;;;;;;;;;5045813;28;20423;-80
2023/04/08 14:07:29;;;;;;;4.30;3.90;;;;;;;;;;5053218;28;20758;-80
2023/04/08 14:09:55;;;;;;;4.90;4.50;;;;;;;;;;5050409;28;20434;-80
2023/04/08 14:12:21;;;;;;;4.35;3.95;;;;;;;;;;5054269;28;20389;-80
2023/04/08 14:14:47;;;;;;;4.50;4.20;;;;;;;;;;5054168;28;20408;-80
2023/04/08 14:17:13;;;;;;;4.45;4.13;;;;;;;;;;5054378;28;20410;-80
2023/04/08 14:19:40;;;;;;;4.03;3.72;;;;;;;;;;5054279;28;20422;-79
2023/04/08 14:22:06;;;;;;;4.47;4.18;;;;;;;;;;5052927;28;20863;-81
2023/04/08 14:24:33;;;;;;;5.07;4.78;;;;;;;;;;5054085;28;20389;-80
2023/04/08 14:26:59;;;;;;;5.65;5.15;;;;;;;;;;5054079;28;20385;-79
2023/04/08 14:29:25;;;;;;;5.32;4.93;;;;;;;;;;5054087;28;20390;-80
2023/04/08 14:31:51;;;;;;;5.28;4.88;;;;;;;;;;5054190;28;20385;-79
2023/04/08 14:34:17;;;;;;;5.72;5.32;;;;;;;;;;5054016;28;20737;-80
2023/04/08 14:36:44;;;;;;;6.80;6.20;;;;;;;;;;5053804;28;20940;-80